createdAt,value
2023-10-23T00:00:20.402Z,8.85
2023-10-23T00:02:47.195Z,8.73
2023-10-23T00:05:14.127Z,8.65
2023-10-23T00:07:40.898Z,8.73
2023-10-23T00:10:10.214Z,9.15
2023-10-23T00:12:36.995Z,8.80
2023-10-23T00:15:04.418Z,8.98
2023-10-23T00:17:31.151Z,9.04
2023-10-23T00:19:57.949Z,8.81
2023-10-23T00:22:24.791Z,8.67
2023-10-23T00:24:51.537Z,9.14
2023-10-23T00:27:19.883Z,8.91
2023-10-23T00:29:46.866Z,9.07
2023-10-23T00:32:13.695Z,9.14
2023-10-23T00:34:40.485Z,9.05
2023-10-23T00:37:07.173Z,8.82
2023-10-23T00:39:33.995Z,8.67
2023-10-23T00:42:00.817Z,8.71
2023-10-23T00:44:28.947Z,8.59
2023-10-23T00:46:55.776Z,8.63
2023-10-23T00:49:22.540Z,8.74
2023-10-23T00:51:49.296Z,8.77
2023-10-23T00:54:16.058Z,8.65
2023-10-23T00:56:42.862Z,8.65
2023-10-23T00:59:09.694Z,8.56
2023-10-23T01:01:37.827Z,8.40
2023-10-23T01:04:05.109Z,8.28
2023-10-23T01:06:31.912Z,8.29
2023-10-23T01:08:58.666Z,8.43
2023-10-23T01:11:25.500Z,8.52
2023-10-23T01:13:52.232Z,8.28
2023-10-23T01:16:18.957Z,8.36
2023-10-23T01:18:47.141Z,8.26
2023-10-23T01:21:13.909Z,8.30
2023-10-23T01:23:42.296Z,8.25
2023-10-23T01:26:10.440Z,8.13
2023-10-23T01:28:37.196Z,8.33
2023-10-23T01:31:04.026Z,8.44
2023-10-23T01:33:30.973Z,8.47
2023-10-23T01:35:57.768Z,8.29
2023-10-23T01:38:24.611Z,8.19
2023-10-23T01:40:51.347Z,7.98
2023-10-23T01:43:19.438Z,7.88
2023-10-23T01:45:46.476Z,8.23
2023-10-23T01:48:13.340Z,8.34
2023-10-23T01:50:41.736Z,8.25
2023-10-23T01:53:08.694Z,7.95
2023-10-23T01:55:35.684Z,7.99
2023-10-23T01:58:02.371Z,7.98
2023-10-23T02:00:30.545Z,7.98
2023-10-23T02:02:57.484Z,7.96
2023-10-23T02:05:24.348Z,7.79
2023-10-23T02:07:51.074Z,7.63
2023-10-23T02:10:17.923Z,7.55
2023-10-23T02:12:44.728Z,7.64
2023-10-23T02:15:11.696Z,7.61
2023-10-23T02:17:40.017Z,7.48
2023-10-23T02:20:07.325Z,7.51
2023-10-23T02:22:34.134Z,7.43
2023-10-23T02:25:00.980Z,7.28
2023-10-23T02:27:27.931Z,7.30
2023-10-23T02:29:54.708Z,7.24
2023-10-23T02:32:21.455Z,7.42
2023-10-23T02:34:49.887Z,7.48
2023-10-23T02:37:16.671Z,7.65
2023-10-23T02:39:43.483Z,7.71
2023-10-23T02:42:10.262Z,7.92
2023-10-23T02:44:37.012Z,7.82
2023-10-23T02:47:04.281Z,7.75
2023-10-23T02:49:31.022Z,8.07
2023-10-23T02:51:59.181Z,7.99
2023-10-23T02:54:26.012Z,7.96
2023-10-23T02:56:52.782Z,7.95
2023-10-23T02:59:19.533Z,7.92
2023-10-23T03:01:46.270Z,7.94
2023-10-23T03:04:13.116Z,7.86
2023-10-23T03:06:39.982Z,7.82
2023-10-23T03:09:08.999Z,7.84
2023-10-23T03:11:36.795Z,7.82
2023-10-23T03:14:03.574Z,7.82
2023-10-23T03:16:30.436Z,7.82
2023-10-23T03:18:57.260Z,7.84
2023-10-23T03:21:24.082Z,8.02
2023-10-23T03:23:51.375Z,8.10
2023-10-23T03:26:19.637Z,8.07
2023-10-23T03:28:46.405Z,8.06
2023-10-23T03:31:13.157Z,7.92
2023-10-23T03:33:39.864Z,7.88
2023-10-23T03:36:06.776Z,8.02
2023-10-23T03:38:33.492Z,8.06
2023-10-23T03:41:00.379Z,8.05
2023-10-23T03:43:28.630Z,7.94
2023-10-23T03:45:55.735Z,8.06
2023-10-23T03:48:22.550Z,8.19
2023-10-23T03:50:49.431Z,7.88
2023-10-23T03:53:16.198Z,7.91
2023-10-23T03:55:43.025Z,7.73
2023-10-23T03:58:09.725Z,7.89
2023-10-23T04:00:37.984Z,7.85
2023-10-23T04:03:04.822Z,7.86
2023-10-23T04:05:31.583Z,7.84
2023-10-23T04:07:58.344Z,7.81
2023-10-23T04:10:25.052Z,7.64
2023-10-23T04:12:51.890Z,7.55
2023-10-23T04:15:18.644Z,7.53
2023-10-23T04:17:46.879Z,7.55
2023-10-23T04:20:13.686Z,7.51
2023-10-23T04:22:40.564Z,7.70
2023-10-23T04:25:07.777Z,7.70
2023-10-23T04:27:34.583Z,7.60
2023-10-23T04:30:01.403Z,7.57
2023-10-23T04:32:28.180Z,7.54
2023-10-23T04:34:56.328Z,7.58
2023-10-23T04:37:23.162Z,7.55
2023-10-23T04:39:49.952Z,7.38
2023-10-23T04:42:16.782Z,7.30
2023-10-23T04:44:43.480Z,7.24
2023-10-23T04:47:10.286Z,7.17
2023-10-23T04:49:37.281Z,7.19
2023-10-23T04:52:06.297Z,7.16
2023-10-23T04:54:33.053Z,7.22
2023-10-23T04:56:59.862Z,7.22
2023-10-23T04:59:26.660Z,7.50
2023-10-23T05:01:53.436Z,7.34
2023-10-23T05:04:20.248Z,7.42
2023-10-23T05:06:47.169Z,7.51
2023-10-23T05:09:15.310Z,7.71
2023-10-23T05:11:42.026Z,7.82
2023-10-23T05:14:08.802Z,7.89
2023-10-23T05:16:35.527Z,8.02
2023-10-23T05:19:02.331Z,8.13
2023-10-23T05:21:29.112Z,8.22
2023-10-23T05:23:55.875Z,8.39
2023-10-23T05:26:24.009Z,8.63
2023-10-23T05:28:51.127Z,8.78
2023-10-23T05:31:17.969Z,8.87
2023-10-23T05:33:44.803Z,8.98
2023-10-23T05:36:11.613Z,9.08
2023-10-23T05:38:38.536Z,9.19
2023-10-23T05:41:05.308Z,9.30
2023-10-23T05:43:33.469Z,9.32
2023-10-23T05:46:02.705Z,9.33
2023-10-23T05:48:29.608Z,9.38
2023-10-23T05:50:59.272Z,9.47
2023-10-23T05:53:26.006Z,9.42
2023-10-23T05:55:52.748Z,9.59
2023-10-23T05:58:19.875Z,9.87
2023-10-23T06:00:48.568Z,10.11
2023-10-23T06:03:15.336Z,10.42
2023-10-23T06:05:42.286Z,11.04
2023-10-23T06:08:09.049Z,11.28
2023-10-23T06:10:41.208Z,11.34
2023-10-23T06:13:08.010Z,11.28
2023-10-23T06:15:34.767Z,11.45
2023-10-23T06:18:02.974Z,11.92
2023-10-23T06:20:29.870Z,12.24
2023-10-23T06:22:56.639Z,12.82
2023-10-23T06:25:23.697Z,13.24
2023-10-23T06:27:50.496Z,13.71
2023-10-23T06:30:17.416Z,13.47
2023-10-23T06:32:44.150Z,14.63
2023-10-23T06:35:12.331Z,13.55
2023-10-23T06:37:39.061Z,14.05
2023-10-23T06:40:06.564Z,14.60
2023-10-23T06:42:33.521Z,14.69
2023-10-23T06:45:00.332Z,14.02
2023-10-23T06:47:27.147Z,14.36
2023-10-23T06:49:53.923Z,14.02
2023-10-23T06:52:22.058Z,15.32
2023-10-23T06:54:48.854Z,15.82
2023-10-23T06:57:15.577Z,14.53
2023-10-23T06:59:42.624Z,14.28
2023-10-23T07:02:09.520Z,14.08
2023-10-23T07:04:36.354Z,15.77
2023-10-23T07:07:11.204Z,16.48
2023-10-23T07:09:50.504Z,18.03
2023-10-23T07:12:17.301Z,16.99
2023-10-23T07:14:44.050Z,17.97
2023-10-23T07:17:10.844Z,17.51
2023-10-23T07:19:37.803Z,17.67
2023-10-23T07:22:04.789Z,17.85
2023-10-23T07:24:31.564Z,17.21
2023-10-23T07:26:59.711Z,18.43
2023-10-23T07:29:26.689Z,18.46
2023-10-23T07:31:53.419Z,17.51
2023-10-23T07:34:20.196Z,19.51
2023-10-23T07:36:46.973Z,17.07
2023-10-23T07:39:13.776Z,18.29
2023-10-23T07:41:40.637Z,18.87
2023-10-23T07:44:08.806Z,19.54
2023-10-23T07:46:35.688Z,21.45
2023-10-23T07:49:02.512Z,19.03
2023-10-23T07:51:29.386Z,19.81
2023-10-23T07:53:56.137Z,20.73
2023-10-23T07:56:23.075Z,20.67
2023-10-23T07:58:49.816Z,22.09
2023-10-23T08:01:18.133Z,20.52
2023-10-23T08:03:45.049Z,20.91
2023-10-23T08:06:12.363Z,20.93
2023-10-23T08:08:39.856Z,22.03
2023-10-23T08:11:07.958Z,21.94
2023-10-23T08:13:34.874Z,21.42
2023-10-23T08:16:01.936Z,23.78
2023-10-23T08:18:39.021Z,20.84
2023-10-23T08:21:11.430Z,20.25
2023-10-23T08:23:38.282Z,21.03
2023-10-23T08:26:05.018Z,23.40
2023-10-23T08:28:49.396Z,22.13
2023-10-23T08:31:34.183Z,24.13
2023-10-23T08:34:06.456Z,22.82
2023-10-23T08:36:33.475Z,23.19
2023-10-23T08:39:00.209Z,24.71
2023-10-23T08:41:27.141Z,23.92
2023-10-23T08:43:54.022Z,23.07
2023-10-23T08:46:20.789Z,26.08
2023-10-23T08:48:47.753Z,23.64
2023-10-23T08:51:15.912Z,25.73
2023-10-23T08:53:58.491Z,24.50
2023-10-23T08:56:35.019Z,23.23
2023-10-23T08:59:01.791Z,23.12
2023-10-23T09:01:29.176Z,24.08
2023-10-23T09:04:04.016Z,25.14
2023-10-23T09:06:33.228Z,21.58
2023-10-23T09:09:00.043Z,23.46
2023-10-23T09:11:37.975Z,20.35
2023-10-23T09:14:04.951Z,23.82
2023-10-23T09:16:31.794Z,22.41
2023-10-23T09:18:58.828Z,24.02
2023-10-23T09:21:25.839Z,23.40
2023-10-23T09:23:54.845Z,22.96
2023-10-23T09:26:21.708Z,23.26
2023-10-23T09:28:48.424Z,23.61
2023-10-23T09:31:15.282Z,22.13
2023-10-23T09:33:42.161Z,21.73
2023-10-23T09:36:08.867Z,20.91
2023-10-23T09:38:35.701Z,22.45
2023-10-23T09:41:04.016Z,21.55
2023-10-23T09:43:30.785Z,23.92
2023-10-23T09:45:57.584Z,24.06
2023-10-23T09:48:24.596Z,24.46
2023-10-23T09:50:51.471Z,27.11
2023-10-23T09:53:18.170Z,26.79
2023-10-23T09:55:45.210Z,25.21
2023-10-23T09:58:15.535Z,25.94
2023-10-23T10:00:45.545Z,23.24
2023-10-23T10:03:13.249Z,24.52
2023-10-23T10:05:45.576Z,26.31
2023-10-23T10:08:14.327Z,27.95
2023-10-23T10:10:41.085Z,27.86
2023-10-23T10:13:07.933Z,23.98
2023-10-23T10:15:36.088Z,23.70
2023-10-23T10:18:02.928Z,25.86
2023-10-23T10:20:29.729Z,25.79
2023-10-23T10:22:59.861Z,24.32
2023-10-23T10:25:26.846Z,24.91
2023-10-23T10:27:56.989Z,25.34
2023-10-23T10:30:41.887Z,26.05
2023-10-23T10:34:21.212Z,26.82
2023-10-23T10:35:58.833Z,22.25
2023-10-23T10:38:26.143Z,22.99
2023-10-23T10:40:57.414Z,24.35
2023-10-23T10:43:24.902Z,24.23
2023-10-23T10:45:53.144Z,25.42
2023-10-23T10:48:19.909Z,24.22
2023-10-23T10:50:46.638Z,23.47
2023-10-23T10:53:14.792Z,23.15
2023-10-23T10:55:41.939Z,22.98
2023-10-23T10:58:08.881Z,21.51
2023-10-23T11:00:36.220Z,23.37
2023-10-23T11:03:04.584Z,22.07
2023-10-23T11:05:31.545Z,22.43
2023-10-23T11:07:58.247Z,22.18
2023-10-23T11:10:24.973Z,22.44
2023-10-23T11:12:51.771Z,21.80
2023-10-23T11:15:18.792Z,23.64
2023-10-23T11:17:45.631Z,22.10
2023-10-23T11:20:14.825Z,22.55
2023-10-23T11:22:42.310Z,22.16
2023-10-23T11:25:09.226Z,23.95
2023-10-23T11:27:36.244Z,23.91
2023-10-23T11:30:03.144Z,24.94
2023-10-23T11:32:29.928Z,22.78
2023-10-23T11:35:00.408Z,23.82
2023-10-23T11:37:32.162Z,23.54
2023-10-23T11:40:02.733Z,22.73
2023-10-23T11:42:29.512Z,23.17
2023-10-23T11:44:58.700Z,22.27
2023-10-23T11:47:25.592Z,22.30
2023-10-23T11:49:52.456Z,22.29
2023-10-23T11:52:19.324Z,23.40
2023-10-23T11:54:47.497Z,23.92
2023-10-23T11:57:14.239Z,23.02
2023-10-23T11:59:41.078Z,24.32
2023-10-23T12:02:07.859Z,25.14
2023-10-23T12:04:34.728Z,23.33
2023-10-23T12:07:01.707Z,23.27
2023-10-23T12:09:28.494Z,24.08
2023-10-23T12:11:56.799Z,24.37
2023-10-23T12:14:23.548Z,23.55
2023-10-23T12:16:50.380Z,21.89
2023-10-23T12:19:17.253Z,22.68
2023-10-23T12:21:44.073Z,21.83
2023-10-23T12:24:10.813Z,22.52
2023-10-23T12:26:37.593Z,23.40
2023-10-23T12:29:05.865Z,24.12
2023-10-23T12:31:32.640Z,23.06
2023-10-23T12:34:19.514Z,21.93
2023-10-23T12:36:46.518Z,22.64
2023-10-23T12:39:13.299Z,22.55
2023-10-23T12:41:40.040Z,21.69
2023-10-23T12:44:08.262Z,21.99
2023-10-23T12:46:35.072Z,21.45
2023-10-23T12:49:01.936Z,21.49
2023-10-23T12:51:28.688Z,21.34
2023-10-23T12:53:55.413Z,20.72
2023-10-23T12:56:22.226Z,20.98
2023-10-23T12:58:48.942Z,23.37
2023-10-23T13:01:17.161Z,23.63
2023-10-23T13:03:44.159Z,23.86
2023-10-23T13:06:10.972Z,23.37
2023-10-23T13:08:37.695Z,23.16
2023-10-23T13:11:04.471Z,23.09
2023-10-23T13:13:31.248Z,22.82
2023-10-23T13:15:58.058Z,23.02
2023-10-23T13:18:26.251Z,22.78
2023-10-23T13:21:32.549Z,22.21
2023-10-23T13:23:39.700Z,22.14
2023-10-23T13:26:13.824Z,21.27
2023-10-23T13:28:41.226Z,22.48
2023-10-23T13:31:08.076Z,22.31
2023-10-23T13:33:36.354Z,23.98
2023-10-23T13:36:03.526Z,23.67
2023-10-23T13:38:30.651Z,22.18
2023-10-23T13:40:57.402Z,22.55
2023-10-23T13:43:24.193Z,22.29
2023-10-23T13:45:51.193Z,22.82
2023-10-23T13:48:18.012Z,23.17
2023-10-23T13:50:46.150Z,23.44
2023-10-23T13:53:12.846Z,23.88
2023-10-23T13:55:39.660Z,22.85
2023-10-23T13:58:06.451Z,23.06
2023-10-23T14:00:33.242Z,22.37
2023-10-23T14:03:00.019Z,21.73
2023-10-23T14:05:26.924Z,22.34
2023-10-23T14:07:55.078Z,22.98
2023-10-23T14:10:22.194Z,22.14
2023-10-23T14:12:49.131Z,21.85
2023-10-23T14:15:15.900Z,22.62
2023-10-23T14:17:42.680Z,21.31
2023-10-23T14:20:10.985Z,20.76
2023-10-23T14:22:37.742Z,20.36
2023-10-23T14:25:06.971Z,20.01
2023-10-23T14:27:33.725Z,20.38
2023-10-23T14:30:00.604Z,20.18
2023-10-23T14:32:27.408Z,20.22
2023-10-23T14:34:54.128Z,20.76
2023-10-23T14:37:20.900Z,21.00
2023-10-23T14:39:47.659Z,21.12
2023-10-23T14:42:15.820Z,20.88
2023-10-23T14:44:42.550Z,20.76
2023-10-23T14:47:09.846Z,20.32
2023-10-23T14:49:36.730Z,20.07
2023-10-23T14:52:03.821Z,19.94
2023-10-23T14:54:30.702Z,19.84
2023-10-23T14:56:57.478Z,19.85
2023-10-23T14:59:25.618Z,19.77
2023-10-23T15:01:52.505Z,19.75
2023-10-23T15:04:19.446Z,19.54
2023-10-23T15:06:46.233Z,19.57
2023-10-23T15:09:13.165Z,19.39
2023-10-23T15:11:39.995Z,19.26
2023-10-23T15:14:06.806Z,19.11
2023-10-23T15:16:36.746Z,18.82
2023-10-23T15:19:04.304Z,18.57
2023-10-23T15:21:31.187Z,18.27
2023-10-23T15:23:57.986Z,17.97
2023-10-23T15:26:24.749Z,17.55
2023-10-23T15:28:51.506Z,17.10
2023-10-23T15:31:18.346Z,16.82
2023-10-23T15:33:46.599Z,16.45
2023-10-23T15:36:13.384Z,16.14
2023-10-23T15:38:40.230Z,16.44
2023-10-23T15:41:07.522Z,16.15
2023-10-23T15:43:34.487Z,16.13
2023-10-23T15:46:01.359Z,15.77
2023-10-23T15:48:28.127Z,15.55
2023-10-23T15:50:57.180Z,15.42
2023-10-23T15:53:23.949Z,15.31
2023-10-23T15:55:50.731Z,14.83
2023-10-23T15:58:17.527Z,14.55
2023-10-23T16:00:44.327Z,14.51
2023-10-23T16:03:11.255Z,14.30
2023-10-23T16:05:38.342Z,14.11
2023-10-23T16:08:06.668Z,14.08
2023-10-23T16:10:33.724Z,13.82
2023-10-23T16:13:02.208Z,13.79
2023-10-23T16:15:29.004Z,13.61
2023-10-23T16:17:55.881Z,13.44
2023-10-23T16:20:22.704Z,13.26
2023-10-23T16:22:49.483Z,13.36
2023-10-23T16:25:20.529Z,13.15
2023-10-23T16:27:47.274Z,13.00
2023-10-23T16:30:14.338Z,13.13
2023-10-23T16:32:41.164Z,12.97
2023-10-23T16:35:08.525Z,12.85
2023-10-23T16:37:35.329Z,12.97
2023-10-23T16:40:02.158Z,13.07
2023-10-23T16:42:30.365Z,13.22
2023-10-23T16:44:57.157Z,13.15
2023-10-23T16:47:24.263Z,13.12
2023-10-23T16:49:52.417Z,13.09
2023-10-23T16:52:19.232Z,13.19
2023-10-23T16:54:47.769Z,13.65
2023-10-23T16:57:18.993Z,13.73
2023-10-23T16:59:48.443Z,13.64
2023-10-23T17:02:15.254Z,13.54
2023-10-23T17:04:42.024Z,13.40
2023-10-23T17:07:11.254Z,13.12
2023-10-23T17:09:39.948Z,13.10
2023-10-23T17:12:09.721Z,13.30
2023-10-23T17:14:36.516Z,13.48
2023-10-23T17:17:04.775Z,13.26
2023-10-23T17:19:31.695Z,13.40
2023-10-23T17:21:58.501Z,13.28
2023-10-23T17:24:25.311Z,13.05
2023-10-23T17:26:52.086Z,12.61
2023-10-23T17:29:18.920Z,12.49
2023-10-23T17:31:45.805Z,12.47
2023-10-23T17:34:14.121Z,12.34
2023-10-23T17:36:43.423Z,12.24
2023-10-23T17:39:10.147Z,12.31
2023-10-23T17:41:41.145Z,12.31
2023-10-23T17:44:10.704Z,12.28
2023-10-23T17:46:37.555Z,12.14
2023-10-23T17:49:06.752Z,12.03
2023-10-23T17:51:34.813Z,11.90
2023-10-23T17:54:05.394Z,11.99
2023-10-23T17:56:34.575Z,12.12
2023-10-23T17:59:03.545Z,12.04
2023-10-23T18:01:30.434Z,12.13
2023-10-23T18:03:57.282Z,11.97
2023-10-23T18:06:24.399Z,11.87
2023-10-23T18:08:53.688Z,12.00
2023-10-23T18:11:22.954Z,11.94
2023-10-23T18:13:51.273Z,11.89
2023-10-23T18:16:18.164Z,11.96
2023-10-23T18:18:45.039Z,11.82
2023-10-23T18:21:11.877Z,11.99
2023-10-23T18:23:38.632Z,11.97
2023-10-23T18:26:06.964Z,12.01
2023-10-23T18:28:33.955Z,12.06
2023-10-23T18:31:00.987Z,12.10
2023-10-23T18:33:30.806Z,12.19
2023-10-23T18:35:57.554Z,12.19
2023-10-23T18:38:24.350Z,12.33
2023-10-23T18:40:51.373Z,12.31
2023-10-23T18:43:19.542Z,12.62
2023-10-23T18:45:46.592Z,12.79
2023-10-23T18:48:13.637Z,12.74
2023-10-23T18:50:40.435Z,12.67
2023-10-23T18:53:07.182Z,12.34
2023-10-23T18:55:34.053Z,12.26
2023-10-23T18:58:02.448Z,12.36
2023-10-23T19:00:30.619Z,12.06
2023-10-23T19:03:00.601Z,11.78
2023-10-23T19:05:27.428Z,11.51
2023-10-23T19:07:54.294Z,11.46
2023-10-23T19:10:21.179Z,11.36
2023-10-23T19:12:50.095Z,11.25
2023-10-23T19:15:17.176Z,11.13
2023-10-23T19:17:45.524Z,10.99
2023-10-23T19:20:17.498Z,10.86
2023-10-23T19:22:44.237Z,10.83
2023-10-23T19:25:11.050Z,10.77
2023-10-23T19:27:37.921Z,10.87
2023-10-23T19:30:05.966Z,11.28
2023-10-23T19:32:35.527Z,11.28
2023-10-23T19:35:04.515Z,11.07
2023-10-23T19:37:31.940Z,11.04
2023-10-23T19:39:59.285Z,11.04
2023-10-23T19:42:27.101Z,10.83
2023-10-23T19:44:57.108Z,10.89
2023-10-23T19:47:24.587Z,10.86
2023-10-23T19:49:51.913Z,10.93
2023-10-23T19:52:20.177Z,10.89
2023-10-23T19:54:49.824Z,10.69
2023-10-23T19:57:18.482Z,10.86
2023-10-23T19:59:45.295Z,10.84
2023-10-23T20:02:12.089Z,10.77
2023-10-23T20:04:39.118Z,10.67
2023-10-23T20:07:06.007Z,10.56
2023-10-23T20:09:34.220Z,10.52
2023-10-23T20:12:00.969Z,10.57
2023-10-23T20:14:27.749Z,10.48
2023-10-23T20:16:54.641Z,10.74
2023-10-23T20:19:21.489Z,10.90
2023-10-23T20:21:48.277Z,11.00
2023-10-23T20:24:15.298Z,11.24
2023-10-23T20:26:43.474Z,11.48
2023-10-23T20:29:10.212Z,11.63
2023-10-23T20:31:37.066Z,11.59
2023-10-23T20:34:03.935Z,11.51
2023-10-23T20:36:30.738Z,11.66
2023-10-23T20:38:57.515Z,11.75
2023-10-23T20:41:24.210Z,11.72
2023-10-23T20:43:52.291Z,11.71
2023-10-23T20:46:19.260Z,11.65
2023-10-23T20:48:46.116Z,11.55
2023-10-23T20:51:12.969Z,11.32
2023-10-23T20:53:39.749Z,11.21
2023-10-23T20:56:07.046Z,11.11
2023-10-23T20:58:33.840Z,11.18
2023-10-23T21:01:05.905Z,11.10
2023-10-23T21:03:32.818Z,11.06
2023-10-23T21:06:00.525Z,10.97
2023-10-23T21:08:27.224Z,10.99
2023-10-23T21:10:53.952Z,11.01
2023-10-23T21:13:20.704Z,11.15
2023-10-23T21:15:47.708Z,11.20
2023-10-23T21:18:15.970Z,11.13
2023-10-23T21:20:42.738Z,10.97
2023-10-23T21:23:09.555Z,10.96
2023-10-23T21:25:36.331Z,10.94
2023-10-23T21:28:03.239Z,10.87
2023-10-23T21:30:30.009Z,10.76
2023-10-23T21:32:56.763Z,10.87
2023-10-23T21:35:24.910Z,10.69
2023-10-23T21:37:51.647Z,10.66
2023-10-23T21:40:18.409Z,10.90
2023-10-23T21:42:45.166Z,10.84
2023-10-23T21:45:11.984Z,10.87
2023-10-23T21:47:38.985Z,10.83
2023-10-23T21:50:06.814Z,11.10
2023-10-23T21:52:35.774Z,10.94
2023-10-23T21:55:14.009Z,10.87
2023-10-23T21:57:46.753Z,10.53
2023-10-23T22:00:14.437Z,10.44
2023-10-23T22:02:41.813Z,10.38
2023-10-23T22:05:09.973Z,10.57
2023-10-23T22:07:38.735Z,10.72
2023-10-23T22:10:06.621Z,10.57
2023-10-23T22:12:33.994Z,10.63
2023-10-23T22:15:00.744Z,10.69
2023-10-23T22:17:27.575Z,10.62
2023-10-23T22:19:54.418Z,10.63
2023-10-23T22:22:21.160Z,10.41
2023-10-23T22:24:49.270Z,10.41
2023-10-23T22:27:16.078Z,10.18
2023-10-23T22:29:42.811Z,10.36
2023-10-23T22:32:09.525Z,10.67
2023-10-23T22:34:36.311Z,10.50
2023-10-23T22:37:55.676Z,10.31
2023-10-23T22:39:51.178Z,10.18
2023-10-23T22:42:17.854Z,10.38
2023-10-23T22:44:44.569Z,10.24
2023-10-23T22:47:11.532Z,10.22
2023-10-23T22:49:38.863Z,10.08
2023-10-23T22:52:06.470Z,10.14
2023-10-23T22:54:34.014Z,10.29
2023-10-23T22:57:03.977Z,10.39
2023-10-23T22:59:31.257Z,10.32
2023-10-23T23:01:58.705Z,10.34
2023-10-23T23:04:26.367Z,10.44
2023-10-23T23:06:53.310Z,10.38
2023-10-23T23:09:20.399Z,10.50
2023-10-23T23:11:47.557Z,10.38
2023-10-23T23:14:16.300Z,10.49
2023-10-23T23:16:43.142Z,10.57
2023-10-23T23:19:11.833Z,10.84
2023-10-23T23:21:39.141Z,10.53
2023-10-23T23:24:06.963Z,10.50
2023-10-23T23:26:33.993Z,10.49
2023-10-23T23:29:00.740Z,10.39
2023-10-23T23:31:28.954Z,10.49
2023-10-23T23:33:55.750Z,10.42
2023-10-23T23:36:22.461Z,10.17
2023-10-23T23:38:49.205Z,10.21
2023-10-23T23:41:15.934Z,10.24
2023-10-23T23:43:42.681Z,10.07
2023-10-23T23:46:09.569Z,9.90
2023-10-23T23:48:37.678Z,9.93
2023-10-23T23:51:04.401Z,10.21
2023-10-23T23:53:31.230Z,10.05
2023-10-23T23:55:57.949Z,9.99
2023-10-23T23:58:24.707Z,10.14
